Terminal Aerodrome Forecast
Issued by NWS

Home | Current Version | Previous Version | Text Only | Print | Product List | Glossary On
Versions: 1 2 3 4 5 6 7 8 9 10 11 12 13 14 15 16 17
357
FTUS43 KDLH 272329
TAFHYR
TAF
KHYR 272329Z 2800/2824 04004KT P6SM VCSH SCT015 OVC060
      TEMPO 2800/2803 5SM -RA BKN008
     FM280800 VRB02KT 3SM BR SCT008 BKN050
      TEMPO 2808/2812 3/4SM BR SCT004
     FM281200 08006KT P6SM BKN070
     FM281800 06008KT P6SM SCT100=

USA.gov is the U.S. government's official web portal to all federal, state and local government web resources and services.